createdAt,value
2018-07-23T00:01:21.738Z,99.90
2018-07-23T00:03:53.449Z,99.90
2018-07-23T00:06:23.090Z,99.90
2018-07-23T00:08:52.705Z,99.90
2018-07-23T00:11:22.766Z,99.90
2018-07-23T00:13:52.922Z,99.90
2018-07-23T00:16:22.545Z,99.90
2018-07-23T00:18:52.197Z,99.90
2018-07-23T00:21:22.095Z,99.90
2018-07-23T00:23:51.777Z,99.90
2018-07-23T00:26:22.422Z,99.90
2018-07-23T00:28:52.126Z,99.90
2018-07-23T00:31:21.794Z,99.90
2018-07-23T00:33:51.465Z,99.90
2018-07-23T00:36:21.089Z,99.90
2018-07-23T00:38:50.727Z,99.90
2018-07-23T00:41:20.431Z,99.90
2018-07-23T00:43:50.101Z,99.90
2018-07-23T00:46:19.713Z,99.90
2018-07-23T00:48:49.353Z,99.80
2018-07-23T00:51:20.036Z,99.80
2018-07-23T00:53:50.153Z,99.90
2018-07-23T00:56:20.151Z,99.90
2018-07-23T00:58:50.188Z,99.90
2018-07-23T01:01:20.286Z,99.90
2018-07-23T01:03:50.182Z,99.90
2018-07-23T01:06:19.865Z,99.90
2018-07-23T01:08:49.504Z,99.90
2018-07-23T01:11:19.154Z,99.90
2018-07-23T01:13:56.472Z,99.90
2018-07-23T01:16:28.349Z,99.90
2018-07-23T01:18:58.376Z,99.90
2018-07-23T01:21:28.070Z,99.90
2018-07-23T01:23:57.689Z,99.90
2018-07-23T01:26:27.337Z,99.90
2018-07-23T01:28:56.965Z,99.90
2018-07-23T01:31:26.621Z,99.90
2018-07-23T01:33:56.269Z,99.90
2018-07-23T01:36:30.897Z,99.90
2018-07-23T01:39:00.895Z,99.90
2018-07-23T01:41:30.913Z,99.90
2018-07-23T01:44:00.794Z,99.90
2018-07-23T01:46:31.526Z,99.90
2018-07-23T01:49:08.982Z,99.90
2018-07-23T01:51:43.139Z,99.90
2018-07-23T01:54:13.221Z,99.90
2018-07-23T01:56:43.180Z,99.90
2018-07-23T01:59:12.825Z,99.90
2018-07-23T02:01:42.516Z,99.90
2018-07-23T02:04:12.249Z,99.90
2018-07-23T02:06:41.942Z,99.90
2018-07-23T02:09:13.050Z,99.90
2018-07-23T02:11:42.816Z,99.90
2018-07-23T02:14:12.498Z,99.90
2018-07-23T02:16:42.137Z,99.90
2018-07-23T02:19:11.818Z,99.90
2018-07-23T02:21:41.695Z,99.90
2018-07-23T02:24:11.412Z,99.90
2018-07-23T02:26:41.356Z,99.90
2018-07-23T02:29:11.002Z,99.90
2018-07-23T02:31:40.934Z,99.90
2018-07-23T02:34:10.653Z,99.90
2018-07-23T02:36:40.543Z,99.90
2018-07-23T02:39:11.409Z,99.90
2018-07-23T02:41:41.106Z,99.90
2018-07-23T02:44:10.759Z,99.90
2018-07-23T02:46:40.724Z,99.90
2018-07-23T02:49:10.626Z,99.90
2018-07-23T02:51:40.333Z,99.90
2018-07-23T02:54:10.338Z,99.90
2018-07-23T02:56:40.019Z,99.90
2018-07-23T02:59:09.945Z,99.90
2018-07-23T03:01:39.864Z,99.90
2018-07-23T03:04:09.680Z,99.80
2018-07-23T03:06:39.678Z,99.80
2018-07-23T03:09:09.800Z,99.90
2018-07-23T03:11:39.775Z,99.90
2018-07-23T03:14:09.734Z,99.90
2018-07-23T03:16:39.730Z,99.90
2018-07-23T03:19:09.685Z,99.90
2018-07-23T03:21:39.668Z,99.90
2018-07-23T03:24:09.271Z,99.90
2018-07-23T03:26:38.905Z,99.90
2018-07-23T03:29:08.534Z,99.90
2018-07-23T03:31:38.474Z,99.90
2018-07-23T03:34:08.099Z,99.90
2018-07-23T03:36:37.754Z,99.90
2018-07-23T03:39:09.951Z,99.90
2018-07-23T03:41:40.066Z,99.90
2018-07-23T03:44:10.002Z,99.90
2018-07-23T03:46:40.007Z,99.90
2018-07-23T03:49:09.609Z,99.90
2018-07-23T03:51:39.615Z,99.90
2018-07-23T03:54:09.336Z,99.90
2018-07-23T03:56:39.742Z,99.90
2018-07-23T03:59:09.469Z,99.90
2018-07-23T04:01:41.243Z,99.90
2018-07-23T04:04:11.398Z,99.90
2018-07-23T04:06:41.053Z,99.90
2018-07-23T04:09:10.704Z,99.90
2018-07-23T04:11:40.983Z,99.90
2018-07-23T04:14:10.902Z,99.90
2018-07-23T04:16:40.893Z,99.90
2018-07-23T04:19:10.802Z,99.90
2018-07-23T04:21:40.737Z,99.90
2018-07-23T04:24:10.767Z,99.90
2018-07-23T04:26:40.441Z,99.90
2018-07-23T04:29:10.672Z,99.90
2018-07-23T04:31:40.356Z,99.90
2018-07-23T04:34:10.049Z,99.90
2018-07-23T04:36:40.282Z,99.90
2018-07-23T04:39:10.236Z,99.90
2018-07-23T04:41:39.906Z,99.90
2018-07-23T04:44:09.561Z,99.90
2018-07-23T04:46:39.225Z,99.90
2018-07-23T04:49:09.571Z,99.90
2018-07-23T04:51:39.234Z,99.90
2018-07-23T04:54:09.000Z,99.90
2018-07-23T04:56:39.256Z,99.90
2018-07-23T04:59:08.818Z,99.90
2018-07-23T05:01:39.032Z,99.90
2018-07-23T05:04:08.749Z,99.90
2018-07-23T05:06:38.401Z,99.90
2018-07-23T05:09:11.283Z,99.90
2018-07-23T05:11:41.572Z,99.90
2018-07-23T05:14:11.707Z,99.90
2018-07-23T05:16:41.602Z,99.90
2018-07-23T05:19:11.508Z,99.90
2018-07-23T05:21:41.142Z,99.90
2018-07-23T05:24:11.107Z,99.90
2018-07-23T05:26:40.769Z,99.90
2018-07-23T05:29:10.976Z,99.90
2018-07-23T05:31:40.652Z,99.90
2018-07-23T05:34:10.337Z,99.90
2018-07-23T05:36:40.050Z,99.90
2018-07-23T05:39:11.571Z,99.90
2018-07-23T05:41:43.472Z,99.90
2018-07-23T05:44:14.110Z,99.90
2018-07-23T05:46:44.097Z,99.90
2018-07-23T05:49:13.753Z,99.90
2018-07-23T05:51:43.493Z,99.90
2018-07-23T05:54:13.517Z,99.90
2018-07-23T05:56:43.152Z,99.90
2018-07-23T05:59:13.465Z,99.90
2018-07-23T06:01:43.113Z,99.90
2018-07-23T06:04:12.827Z,99.90
2018-07-23T06:06:42.894Z,99.90
2018-07-23T06:09:12.826Z,99.90
2018-07-23T06:11:42.502Z,99.90
2018-07-23T06:14:12.238Z,99.90
2018-07-23T06:16:41.939Z,99.90
2018-07-23T06:19:11.618Z,99.80
2018-07-23T06:21:41.783Z,99.90
2018-07-23T06:24:11.798Z,99.90
2018-07-23T06:26:41.741Z,99.90
2018-07-23T06:29:12.068Z,99.90
2018-07-23T06:31:41.964Z,99.90
2018-07-23T06:34:11.875Z,99.80
2018-07-23T06:36:41.706Z,99.70
2018-07-23T06:39:12.251Z,99.80
2018-07-23T06:41:42.326Z,99.50
2018-07-23T06:44:12.048Z,99.30
2018-07-23T06:46:41.909Z,98.80
2018-07-23T06:49:11.488Z,98.60
2018-07-23T06:51:41.110Z,98.60
2018-07-23T06:54:11.057Z,98.90
2018-07-23T06:56:40.798Z,98.70
2018-07-23T06:59:10.632Z,98.20
2018-07-23T07:01:40.272Z,98.40
2018-07-23T07:04:09.914Z,98.10
2018-07-23T07:06:39.570Z,97.80
2018-07-23T07:09:10.575Z,97.40
2018-07-23T07:11:40.239Z,96.90
2018-07-23T07:14:10.439Z,96.90
2018-07-23T07:16:40.370Z,96.30
2018-07-23T07:19:10.156Z,95.90
2018-07-23T07:21:39.998Z,95.90
2018-07-23T07:24:09.612Z,95.80
2018-07-23T07:26:39.230Z,95.30
2018-07-23T07:29:08.864Z,94.90
2018-07-23T07:31:38.817Z,95.60
2018-07-23T07:34:08.929Z,94.90
2018-07-23T07:36:38.625Z,94.40
2018-07-23T07:39:11.466Z,94.40
2018-07-23T07:41:41.626Z,94.70
2018-07-23T07:44:11.258Z,94.70
2018-07-23T07:46:42.189Z,94.60
2018-07-23T07:49:12.255Z,94.00
2018-07-23T07:51:41.906Z,94.00
2018-07-23T07:54:11.557Z,94.20
2018-07-23T07:56:41.682Z,93.80
2018-07-23T07:59:11.420Z,93.60
2018-07-23T08:01:41.019Z,93.20
2018-07-23T08:04:10.747Z,93.10
2018-07-23T08:06:40.403Z,92.80
2018-07-23T08:09:10.483Z,92.40
2018-07-23T08:11:40.987Z,92.30
2018-07-23T08:14:10.647Z,92.70
2018-07-23T08:16:40.329Z,92.00
2018-07-23T08:19:10.666Z,92.60
2018-07-23T08:21:40.558Z,92.20
2018-07-23T08:24:10.602Z,92.20
2018-07-23T08:26:40.319Z,92.10
2018-07-23T08:29:10.013Z,91.70
2018-07-23T08:31:39.803Z,91.80
2018-07-23T08:34:09.653Z,91.40
2018-07-23T08:36:40.366Z,90.90
2018-07-23T08:39:11.770Z,91.10
2018-07-23T08:41:41.482Z,91.20
2018-07-23T08:44:11.140Z,90.70
2018-07-23T08:46:40.773Z,90.50
2018-07-23T08:49:10.513Z,90.30
2018-07-23T08:51:40.254Z,90.20
2018-07-23T08:54:10.354Z,90.00
2018-07-23T08:56:40.466Z,89.90
2018-07-23T08:59:10.100Z,89.80
2018-07-23T09:01:39.775Z,90.00
2018-07-23T09:04:09.440Z,89.50
2018-07-23T09:06:39.803Z,89.20
2018-07-23T09:09:11.010Z,89.00
2018-07-23T09:11:41.165Z,88.80
2018-07-23T09:14:11.118Z,87.60
2018-07-23T09:16:41.058Z,87.90
2018-07-23T09:19:10.964Z,86.80
2018-07-23T09:21:40.641Z,87.10
2018-07-23T09:24:10.601Z,86.60
2018-07-23T09:26:40.244Z,85.80
2018-07-23T09:29:09.946Z,86.40
2018-07-23T09:31:39.611Z,85.90
2018-07-23T09:34:09.741Z,83.90
2018-07-23T09:36:39.474Z,85.80
2018-07-23T09:39:10.514Z,84.60
2018-07-23T09:41:40.535Z,84.70
2018-07-23T09:44:10.536Z,84.80
2018-07-23T09:46:40.571Z,83.10
2018-07-23T09:49:10.257Z,82.80
2018-07-23T09:51:40.407Z,83.70
2018-07-23T09:54:10.048Z,83.00
2018-07-23T09:56:41.725Z,82.10
2018-07-23T09:59:11.959Z,82.10
2018-07-23T10:01:41.621Z,82.90
2018-07-23T10:04:11.674Z,82.50
2018-07-23T10:06:41.617Z,85.10
2018-07-23T10:09:12.438Z,81.90
2018-07-23T10:11:42.394Z,80.50
2018-07-23T10:14:12.259Z,81.90
2018-07-23T10:16:41.935Z,80.90
2018-07-23T10:19:21.630Z,80.50
2018-07-23T10:21:51.573Z,80.10
2018-07-23T10:24:21.214Z,80.80
2018-07-23T10:26:51.282Z,81.40
2018-07-23T10:29:20.911Z,82.80
2018-07-23T10:31:51.071Z,82.50
2018-07-23T10:34:20.700Z,79.90
2018-07-23T10:36:50.418Z,81.10
2018-07-23T10:39:20.434Z,79.40
2018-07-23T10:41:50.078Z,79.30
2018-07-23T10:44:20.616Z,79.70
2018-07-23T10:46:50.317Z,79.80
2018-07-23T10:49:19.968Z,80.10
2018-07-23T10:51:49.644Z,79.90
2018-07-23T10:54:19.878Z,79.40
2018-07-23T10:56:49.572Z,78.90
2018-07-23T10:59:19.322Z,78.10
2018-07-23T11:01:49.159Z,78.00
2018-07-23T11:04:19.886Z,77.90
2018-07-23T11:06:54.902Z,77.40
2018-07-23T11:09:24.758Z,76.80
2018-07-23T11:11:54.570Z,77.60
2018-07-23T11:14:24.309Z,76.80
2018-07-23T11:16:54.114Z,77.50
2018-07-23T11:19:23.823Z,76.30
2018-07-23T11:21:53.466Z,75.40
2018-07-23T11:24:23.140Z,75.30
2018-07-23T11:26:53.023Z,76.70
2018-07-23T11:29:22.877Z,76.00
2018-07-23T11:31:52.981Z,75.40
2018-07-23T11:34:22.842Z,76.30
2018-07-23T11:36:52.490Z,76.20
2018-07-23T11:39:22.621Z,75.50
2018-07-23T11:41:52.200Z,75.60
2018-07-23T11:44:22.168Z,76.10
2018-07-23T11:46:51.793Z,75.90
2018-07-23T11:49:21.480Z,75.70
2018-07-23T11:51:51.113Z,75.70
2018-07-23T11:54:20.722Z,76.20
2018-07-23T11:56:50.380Z,75.40
2018-07-23T11:59:20.042Z,75.10
2018-07-23T12:01:49.748Z,74.50
2018-07-23T12:04:19.457Z,75.40
2018-07-23T12:06:49.341Z,74.60
2018-07-23T12:09:18.976Z,74.60
2018-07-23T12:11:48.647Z,73.90
2018-07-23T12:14:18.710Z,73.80
2018-07-23T12:16:48.410Z,73.00
2018-07-23T12:19:18.029Z,73.60
2018-07-23T12:21:47.674Z,73.70
2018-07-23T12:24:17.867Z,72.70
2018-07-23T12:26:47.518Z,73.00
2018-07-23T12:29:17.241Z,72.90
2018-07-23T12:31:46.886Z,72.70
2018-07-23T12:34:16.561Z,71.90
2018-07-23T12:36:46.209Z,73.70
2018-07-23T12:39:15.939Z,74.50
2018-07-23T12:41:45.810Z,74.10
2018-07-23T12:44:15.542Z,74.30
2018-07-23T12:46:45.312Z,73.90
2018-07-23T12:49:15.108Z,73.90
2018-07-23T12:51:44.993Z,74.00
2018-07-23T12:54:14.832Z,73.80
2018-07-23T12:56:44.558Z,75.00
2018-07-23T12:59:14.237Z,74.30
2018-07-23T13:01:43.948Z,74.30
2018-07-23T13:04:13.747Z,73.20
2018-07-23T13:06:43.862Z,73.60
2018-07-23T13:09:15.944Z,72.10
2018-07-23T13:11:45.725Z,72.50
2018-07-23T13:14:15.822Z,74.70
2018-07-23T13:16:45.505Z,75.40
2018-07-23T13:19:15.385Z,73.50
2018-07-23T13:21:45.078Z,73.20
2018-07-23T13:24:14.836Z,73.40
2018-07-23T13:26:44.549Z,73.00
2018-07-23T13:29:14.406Z,72.70
2018-07-23T13:31:44.212Z,72.70
2018-07-23T13:34:13.930Z,72.20
2018-07-23T13:36:43.650Z,72.40
2018-07-23T13:39:14.271Z,71.70
2018-07-23T13:41:44.109Z,72.50
2018-07-23T13:44:14.011Z,72.60
2018-07-23T13:46:43.767Z,72.00
2018-07-23T13:49:13.484Z,73.10
2018-07-23T13:51:43.510Z,73.90
2018-07-23T13:54:13.220Z,73.60
2018-07-23T13:56:43.068Z,73.10
2018-07-23T13:59:16.962Z,73.40
2018-07-23T14:01:47.412Z,73.60
2018-07-23T14:04:17.559Z,74.10
2018-07-23T14:06:47.238Z,72.70
2018-07-23T14:09:17.048Z,72.90
2018-07-23T14:11:46.770Z,72.00
2018-07-23T14:14:16.962Z,72.60
2018-07-23T14:16:46.826Z,73.30
2018-07-23T14:19:24.373Z,72.90
2018-07-23T14:21:55.146Z,72.10
2018-07-23T14:24:24.804Z,71.50
2018-07-23T14:26:56.585Z,71.50
2018-07-23T14:29:26.274Z,70.90
2018-07-23T14:31:56.132Z,70.00
2018-07-23T14:34:26.051Z,69.90
2018-07-23T14:36:55.861Z,69.80
2018-07-23T14:39:25.611Z,69.40
2018-07-23T14:41:55.334Z,69.70
2018-07-23T14:44:25.460Z,69.20
2018-07-23T14:46:55.243Z,69.00
2018-07-23T14:49:25.048Z,68.90
2018-07-23T14:51:54.832Z,68.60
2018-07-23T14:54:24.641Z,68.50
2018-07-23T14:56:54.350Z,67.30
2018-07-23T14:59:24.332Z,68.40
2018-07-23T15:01:55.019Z,68.40
2018-07-23T15:04:24.694Z,67.40
2018-07-23T15:06:54.433Z,68.50
2018-07-23T15:09:24.198Z,67.50
2018-07-23T15:11:54.163Z,67.90
2018-07-23T15:14:24.166Z,68.10
2018-07-23T15:16:55.202Z,67.40
2018-07-23T15:19:25.087Z,68.40
2018-07-23T15:21:54.857Z,68.00
2018-07-23T15:24:24.866Z,67.80
2018-07-23T15:26:54.569Z,66.90
2018-07-23T15:29:24.618Z,67.90
2018-07-23T15:32:03.994Z,68.60
2018-07-23T15:34:33.713Z,67.80
2018-07-23T15:37:04.000Z,68.20
2018-07-23T15:39:33.773Z,68.90
2018-07-23T15:42:05.910Z,67.80
2018-07-23T15:44:36.016Z,68.30
2018-07-23T15:49:40.307Z,69.20
2018-07-23T15:52:10.086Z,69.40
2018-07-23T15:54:39.843Z,69.70
2018-07-23T15:57:09.786Z,69.20
2018-07-23T15:59:39.479Z,70.10
2018-07-23T16:02:09.240Z,71.50
2018-07-23T16:04:39.148Z,70.40
2018-07-23T16:07:08.830Z,70.60
2018-07-23T16:09:38.522Z,70.90
2018-07-23T16:12:08.271Z,70.40
2018-07-23T16:14:38.107Z,70.80
2018-07-23T16:17:08.205Z,69.20
2018-07-23T16:19:37.903Z,69.30
2018-07-23T16:22:07.688Z,70.00
2018-07-23T16:24:37.404Z,67.50
2018-07-23T16:27:07.418Z,67.50
2018-07-23T16:29:37.154Z,66.60
2018-07-23T16:32:06.986Z,66.70
2018-07-23T16:34:36.713Z,66.90
2018-07-23T16:37:06.385Z,67.50
2018-07-23T16:39:37.347Z,67.70
2018-07-23T16:42:07.232Z,68.00
2018-07-23T16:44:36.986Z,67.10
2018-07-23T16:47:06.800Z,67.60
2018-07-23T16:49:36.426Z,67.10
2018-07-23T16:52:06.938Z,66.10
2018-07-23T16:54:36.666Z,66.00
2018-07-23T16:57:06.536Z,66.90
2018-07-23T16:59:36.251Z,66.40
2018-07-23T17:02:06.194Z,66.70
2018-07-23T17:04:36.132Z,66.00
2018-07-23T17:07:05.987Z,66.40
2018-07-23T17:09:35.878Z,66.20
2018-07-23T17:12:05.724Z,66.40
2018-07-23T17:14:35.566Z,66.50
2018-07-23T17:17:05.363Z,67.20
2018-07-23T17:19:35.066Z,66.40
2018-07-23T17:22:05.253Z,66.60
2018-07-23T17:24:35.047Z,67.30
2018-07-23T17:27:04.858Z,66.60
2018-07-23T17:29:34.585Z,67.10
2018-07-23T17:32:04.479Z,66.90
2018-07-23T17:34:34.466Z,67.50
2018-07-23T17:37:04.610Z,68.80
2018-07-23T17:39:34.398Z,68.50
2018-07-23T17:42:04.263Z,67.80
2018-07-23T17:44:34.259Z,68.70
2018-07-23T17:47:04.151Z,69.90
2018-07-23T17:49:33.885Z,70.30
2018-07-23T17:52:03.830Z,70.80
2018-07-23T17:54:33.658Z,71.40
2018-07-23T17:57:03.481Z,72.70
2018-07-23T17:59:33.185Z,73.40
2018-07-23T18:02:02.934Z,73.90
2018-07-23T18:04:32.682Z,74.50
2018-07-23T18:07:02.458Z,75.10
2018-07-23T18:09:32.166Z,75.80
2018-07-23T18:12:02.376Z,76.50
2018-07-23T18:14:32.055Z,77.00
2018-07-23T18:17:01.766Z,77.50
2018-07-23T18:19:31.674Z,77.90
2018-07-23T18:22:01.397Z,77.60
2018-07-23T18:24:31.114Z,78.00
2018-07-23T18:27:00.774Z,78.60
2018-07-23T18:29:30.860Z,78.80
2018-07-23T18:32:00.879Z,78.90
2018-07-23T18:34:30.623Z,78.80
2018-07-23T18:37:00.393Z,78.70
2018-07-23T18:39:30.092Z,79.00
2018-07-23T18:42:00.318Z,79.00
2018-07-23T18:44:30.034Z,79.50
2018-07-23T18:46:59.758Z,79.80
2018-07-23T18:49:48.034Z,79.70
2018-07-23T18:52:18.714Z,79.60
2018-07-23T18:54:49.795Z,79.70
2018-07-23T18:57:19.818Z,80.00
2018-07-23T18:59:49.826Z,80.50
2018-07-23T19:02:20.438Z,81.50
2018-07-23T19:04:50.253Z,82.20
2018-07-23T19:07:20.075Z,83.40
2018-07-23T19:09:49.866Z,83.60
2018-07-23T19:12:19.688Z,83.90
2018-07-23T19:14:49.500Z,84.30
2018-07-23T19:17:19.430Z,84.90
2018-07-23T19:19:49.094Z,85.70
2018-07-23T19:22:18.822Z,86.40
2018-07-23T19:24:48.767Z,87.20
2018-07-23T19:27:18.708Z,87.70
2018-07-23T19:29:48.387Z,86.90
2018-07-23T19:32:18.234Z,87.90
2018-07-23T19:34:48.768Z,88.70
2018-07-23T19:37:18.838Z,88.40
2018-07-23T19:39:48.508Z,88.50
2018-07-23T19:42:18.577Z,89.00
2018-07-23T19:44:48.333Z,89.50
2018-07-23T19:47:17.966Z,89.90
2018-07-23T19:49:47.670Z,90.10
2018-07-23T19:52:17.530Z,90.00
2018-07-23T19:54:47.150Z,90.30
2018-07-23T19:57:16.806Z,90.60
2018-07-23T19:59:46.515Z,90.70
2018-07-23T20:02:16.594Z,91.10
2018-07-23T20:04:46.670Z,90.90
2018-07-23T20:07:16.357Z,90.80
2018-07-23T20:09:46.009Z,91.60
2018-07-23T20:12:15.690Z,92.00
2018-07-23T20:14:47.679Z,92.40
2018-07-23T20:17:17.599Z,92.10
2018-07-23T20:19:48.040Z,91.50
2018-07-23T20:22:23.062Z,92.60
2018-07-23T20:24:52.725Z,92.20
2018-07-23T20:27:23.010Z,92.90
2018-07-23T20:29:53.079Z,93.40
2018-07-23T20:32:22.725Z,94.10
2018-07-23T20:34:53.064Z,94.40
2018-07-23T20:37:22.966Z,94.90
2018-07-23T20:39:52.876Z,94.10
2018-07-23T20:42:23.112Z,94.00
2018-07-23T20:44:52.878Z,93.80
2018-07-23T20:47:22.901Z,93.10
2018-07-23T20:49:52.586Z,93.10
2018-07-23T20:52:22.254Z,93.10
2018-07-23T20:54:51.903Z,93.70
2018-07-23T20:57:21.550Z,93.60
2018-07-23T20:59:51.247Z,94.80
2018-07-23T21:02:20.971Z,94.80
2018-07-23T21:04:50.736Z,94.20
2018-07-23T21:07:20.402Z,95.30
2018-07-23T21:09:50.097Z,96.10
2018-07-23T21:12:19.760Z,96.40
2018-07-23T21:14:49.829Z,96.50
2018-07-23T21:17:19.790Z,96.70
2018-07-23T21:19:49.545Z,97.30
2018-07-23T21:22:19.355Z,97.50
2018-07-23T21:24:49.317Z,97.10
2018-07-23T21:27:18.963Z,96.10
2018-07-23T21:29:50.886Z,96.00
2018-07-23T21:32:20.784Z,95.40
2018-07-23T21:34:50.460Z,95.10
2018-07-23T21:37:20.567Z,95.70
2018-07-23T21:39:50.480Z,95.90
2018-07-23T21:42:20.483Z,95.40
2018-07-23T21:44:50.197Z,95.10
2018-07-23T21:47:19.866Z,95.10
2018-07-23T21:49:49.989Z,95.50
2018-07-23T21:52:19.920Z,96.90
2018-07-23T21:54:49.590Z,97.90
2018-07-23T21:57:19.226Z,98.50
2018-07-23T21:59:48.946Z,99.10
2018-07-23T22:02:19.793Z,99.50
2018-07-23T22:04:50.138Z,98.70
2018-07-23T22:07:19.818Z,98.00
2018-07-23T22:09:49.524Z,97.40
2018-07-23T22:12:19.365Z,97.00
2018-07-23T22:14:49.202Z,97.70
2018-07-23T22:17:18.869Z,98.70
2018-07-23T22:19:49.593Z,98.70
2018-07-23T22:22:19.229Z,98.00
2018-07-23T22:24:49.129Z,97.40
2018-07-23T22:27:18.799Z,97.20
2018-07-23T22:29:48.551Z,97.10
2018-07-23T22:32:18.532Z,98.20
2018-07-23T22:34:48.358Z,99.50
2018-07-23T22:37:18.690Z,99.80
2018-07-23T22:39:48.337Z,99.90
2018-07-23T22:42:18.054Z,99.90
2018-07-23T22:45:04.445Z,99.60
2018-07-23T22:47:36.141Z,99.20
2018-07-23T22:50:07.010Z,98.50
2018-07-23T22:52:37.116Z,97.80
2018-07-23T22:55:06.859Z,98.00
2018-07-23T22:57:36.642Z,99.40
2018-07-23T23:00:11.066Z,99.90
2018-07-23T23:02:40.989Z,99.90
2018-07-23T23:05:10.706Z,99.90
2018-07-23T23:07:40.414Z,99.90
2018-07-23T23:10:11.104Z,99.70
2018-07-23T23:12:40.849Z,99.00
2018-07-23T23:15:10.626Z,98.70
2018-07-23T23:17:39.894Z,99.50
2018-07-23T23:20:09.766Z,99.90
2018-07-23T23:22:39.501Z,99.90
2018-07-23T23:25:14.862Z,99.90
2018-07-23T23:27:44.541Z,99.90
2018-07-23T23:30:14.533Z,99.30
2018-07-23T23:32:44.197Z,99.30
2018-07-23T23:35:14.887Z,99.90
2018-07-23T23:38:07.482Z,99.90
2018-07-23T23:40:39.388Z,99.90
2018-07-23T23:43:09.315Z,99.90
2018-07-23T23:45:42.011Z,99.90
2018-07-23T23:48:27.362Z,99.90
2018-07-23T23:50:56.969Z,99.90
2018-07-23T23:53:28.778Z,99.90
2018-07-23T23:55:58.582Z,99.90
2018-07-23T23:58:28.242Z,99.90
